Time;durP1;ratioP1;P1;durP2;ratioP2;P2;SDS_P1;SDS_P2;PMS_P1;PMS_P2;Temp;Humidity;BMP_temperature;BMP_pressure;BME280_temperature;BME280_humidity;BME280_pressure;Samples;Min_cycle;Max_cycle;Signal;HPM_P1;HPM_P2
2023/03/26 00:01:22;;;;;;;3.10;1.80;;;7.60;99.90;;;;;;5047092;28;20060;-67
2023/03/26 00:03:52;;;;;;;10.52;2.17;;;7.50;99.90;;;;;;5039987;28;20041;-67
2023/03/26 00:06:21;;;;;;;6.07;1.67;;;7.50;99.90;;;;;;5036658;28;20045;-66
2023/03/26 00:08:48;;;;;;;3.85;1.45;;;7.50;99.90;;;;;;5034708;28;20911;-68
2023/03/26 00:11:16;;;;;;;7.93;2.17;;;7.40;99.90;;;;;;5040400;28;20469;-66
2023/03/26 00:13:43;;;;;;;7.82;2.05;;;7.30;99.90;;;;;;5032558;28;20102;-65
2023/03/26 00:16:10;;;;;;;9.65;1.40;;;7.40;99.90;;;;;;5015507;28;20044;-67
2023/03/26 00:18:36;;;;;;;7.03;2.05;;;7.30;99.90;;;;;;5033109;28;20404;-67
2023/03/26 00:21:04;;;;;;;11.20;1.45;;;7.20;99.90;;;;;;5034630;28;20046;-65
2023/03/26 00:23:31;;;;;;;7.65;1.88;;;7.20;99.90;;;;;;5034547;28;20416;-67
2023/03/26 00:25:57;;;;;;;7.53;1.20;;;7.10;99.90;;;;;;5050296;28;20033;-66
2023/03/26 00:28:23;;;;;;;9.25;1.60;;;7.10;99.90;;;;;;5036759;28;20035;-67
2023/03/26 00:30:55;;;;;;;6.13;1.45;;;7.20;99.90;;;;;;5030989;28;20048;-67
2023/03/26 00:33:22;;;;;;;9.20;1.70;;;7.20;99.90;;;;;;5032835;28;20103;-66
2023/03/26 00:35:55;;;;;;;10.93;2.10;;;7.20;99.90;;;;;;5031654;28;20044;-66
2023/03/26 00:38:22;;;;;;;7.85;1.77;;;7.10;99.90;;;;;;5035194;28;20041;-66
2023/03/26 00:40:50;;;;;;;7.90;1.70;;;7.10;99.90;;;;;;5034662;28;20041;-68
2023/03/26 00:43:19;;;;;;;7.72;1.40;;;7.10;99.90;;;;;;5039478;28;20065;-66
2023/03/26 00:45:53;;;;;;;8.13;1.70;;;7.10;99.90;;;;;;5031343;28;20057;-65
2023/03/26 00:48:20;;;;;;;10.35;1.70;;;7.10;99.90;;;;;;5034379;28;20123;-65
2023/03/26 00:50:48;;;;;;;9.45;1.75;;;7.10;99.90;;;;;;5041500;28;20056;-65
2023/03/26 00:53:15;;;;;;;4.97;1.30;;;7.10;99.90;;;;;;5044531;28;20057;-67
2023/03/26 00:55:45;;;;;;;6.45;1.13;;;7.10;99.90;;;;;;5039704;28;20044;-65
2023/03/26 00:58:12;;;;;;;4.63;1.50;;;7.20;99.90;;;;;;5034303;28;20056;-66
2023/03/26 01:00:44;;;;;;;7.60;1.52;;;7.20;99.90;;;;;;5033353;28;20041;-65
2023/03/26 01:03:13;;;;;;;9.70;1.80;;;7.20;99.90;;;;;;5035499;28;20143;-65
2023/03/26 01:05:51;;;;;;;5.70;1.30;;;7.20;99.90;;;;;;5051109;28;20087;-67
2023/03/26 01:08:30;;;;;;;4.13;1.40;;;7.20;99.90;;;;;;5050591;28;20460;-66
2023/03/26 01:11:06;;;;;;;3.38;1.20;;;7.20;99.90;;;;;;5040892;28;20041;-66
2023/03/26 01:13:35;;;;;;;7.25;1.40;;;7.20;99.90;;;;;;5046292;28;20079;-67
2023/03/26 01:16:02;;;;;;;5.35;1.40;;;7.20;99.90;;;;;;5045063;28;20033;-67
2023/03/26 01:18:32;;;;;;;3.35;1.63;;;7.20;99.90;;;;;;5030974;28;20029;-66
2023/03/26 01:21:04;;;;;;;5.20;1.27;;;7.20;99.90;;;;;;5049800;28;20123;-66
2023/03/26 01:23:50;;;;;;;6.88;1.42;;;7.30;99.90;;;;;;5035431;28;20397;-67
2023/03/26 01:26:44;;;;;;;7.07;1.88;;;7.20;99.90;;;;;;5036758;28;22123;-66
2023/03/26 01:29:28;;;;;;;6.13;1.50;;;7.20;99.90;;;;;;5041971;28;20590;-66
2023/03/26 01:32:16;;;;;;;3.78;1.10;;;7.30;99.90;;;;;;5035692;28;20064;-66
2023/03/26 01:34:53;;;;;;;6.78;1.30;;;7.30;99.90;;;;;;5033081;28;20541;-66
2023/03/26 01:37:45;;;;;;;11.35;1.40;;;7.20;99.90;;;;;;5041824;28;20548;-65
2023/03/26 01:40:26;;;;;;;3.55;1.10;;;7.20;99.90;;;;;;5038003;28;20045;-66
2023/03/26 01:43:07;;;;;;;6.57;1.20;;;7.30;99.90;;;;;;5031684;28;20080;-67
2023/03/26 01:45:37;;;;;;;4.30;1.33;;;7.20;99.90;;;;;;5028812;28;20037;-66
2023/03/26 01:48:05;;;;;;;3.83;1.17;;;7.20;99.90;;;;;;5032795;28;22583;-67
2023/03/26 01:50:30;;;;;;;10.00;1.52;;;7.20;99.90;;;;;;5037556;28;20036;-66
2023/03/26 01:52:56;;;;;;;4.85;1.58;;;7.20;99.90;;;;;;5031765;28;20555;-66
2023/03/26 01:55:29;;;;;;;2.85;1.00;;;7.20;99.90;;;;;;5041339;28;20099;-65
2023/03/26 01:58:12;;;;;;;4.32;1.48;;;7.10;99.90;;;;;;5037513;28;20618;-66
2023/03/26 02:00:48;;;;;;;3.70;1.13;;;7.10;99.90;;;;;;5046253;28;20089;-66
2023/03/26 02:03:43;;;;;;;9.75;1.33;;;7.10;99.90;;;;;;5054134;28;20128;-66
2023/03/26 02:06:22;;;;;;;7.07;1.25;;;7.10;99.90;;;;;;5033528;28;20450;-65
2023/03/26 02:08:47;;;;;;;6.82;1.20;;;7.10;99.90;;;;;;5047437;28;22441;-66
2023/03/26 02:11:13;;;;;;;8.73;1.80;;;7.10;99.90;;;;;;5034882;28;20045;-65
2023/03/26 02:13:42;;;;;;;4.78;1.50;;;7.10;99.90;;;;;;5037122;28;20111;-67
2023/03/26 02:16:13;;;;;;;5.93;1.67;;;7.10;99.90;;;;;;5033843;28;20056;-66
2023/03/26 02:18:39;;;;;;;3.35;1.02;;;7.10;99.90;;;;;;5039525;28;20048;-66
2023/03/26 02:21:11;;;;;;;6.13;1.02;;;7.20;99.90;;;;;;5035752;28;20044;-67
2023/03/26 02:23:39;;;;;;;2.28;1.23;;;7.00;99.90;;;;;;5047066;28;20037;-65
2023/03/26 02:26:10;;;;;;;5.43;1.40;;;7.00;99.90;;;;;;5032184;28;20064;-67
2023/03/26 02:28:36;;;;;;;7.45;1.48;;;7.00;99.90;;;;;;5040134;28;20466;-66
2023/03/26 02:31:02;;;;;;;5.63;1.02;;;7.00;99.90;;;;;;5029946;28;20170;-65
2023/03/26 02:33:29;;;;;;;6.82;0.93;;;7.00;99.90;;;;;;5032871;28;20077;-67
2023/03/26 02:36:00;;;;;;;6.45;1.58;;;7.00;99.90;;;;;;5034409;28;20052;-65
2023/03/26 02:38:27;;;;;;;5.03;1.10;;;6.90;99.90;;;;;;5031308;28;20052;-66
2023/03/26 02:40:53;;;;;;;5.78;1.40;;;7.00;99.90;;;;;;5041985;28;20046;-65
2023/03/26 02:43:19;;;;;;;4.90;1.42;;;7.00;99.90;;;;;;5037140;28;20037;-66
2023/03/26 02:45:45;;;;;;;2.53;0.93;;;6.90;99.90;;;;;;5040279;28;20497;-66
2023/03/26 02:48:11;;;;;;;6.43;1.60;;;6.80;99.90;;;;;;5032290;28;20197;-65
2023/03/26 02:50:37;;;;;;;3.15;1.33;;;6.80;99.90;;;;;;5044279;28;20032;-66
2023/03/26 02:53:02;;;;;;;7.60;1.30;;;6.70;99.90;;;;;;5037899;28;20481;-66
2023/03/26 02:55:28;;;;;;;10.02;2.40;;;6.70;99.90;;;;;;5038848;28;20469;-67
2023/03/26 02:57:53;;;;;;;9.77;1.45;;;6.60;99.90;;;;;;5032844;28;20119;-66
2023/03/26 03:00:21;;;;;;;7.72;1.45;;;6.70;99.90;;;;;;5031308;28;20084;-65
2023/03/26 03:02:48;;;;;;;10.65;1.80;;;6.60;99.90;;;;;;5035459;28;20126;-65
2023/03/26 03:05:14;;;;;;;7.63;1.65;;;6.70;99.90;;;;;;5032899;28;20068;-65
2023/03/26 03:07:39;;;;;;;10.75;1.50;;;6.60;99.90;;;;;;5043711;28;20102;-66
2023/03/26 03:10:09;;;;;;;7.15;1.65;;;6.60;99.90;;;;;;5036435;28;20029;-66
2023/03/26 03:12:35;;;;;;;9.48;2.15;;;6.60;99.90;;;;;;5036966;28;20075;-65
2023/03/26 03:15:02;;;;;;;2.30;1.13;;;6.60;99.90;;;;;;5047735;28;20048;-65
2023/03/26 03:17:27;;;;;;;4.88;1.33;;;6.50;99.90;;;;;;5050661;28;20041;-66
2023/03/26 03:19:53;;;;;;;2.40;1.27;;;6.40;99.90;;;;;;5050648;28;20406;-65
2023/03/26 03:22:18;;;;;;;7.40;1.10;;;6.30;99.90;;;;;;5034878;28;20046;-66
2023/03/26 03:24:44;;;;;;;4.03;1.45;;;6.20;99.90;;;;;;5050120;28;20041;-65
2023/03/26 03:27:11;;;;;;;4.45;1.58;;;6.20;99.90;;;;;;5030704;28;20428;-65
2023/03/26 03:29:37;;;;;;;3.35;1.10;;;6.10;99.90;;;;;;5026521;28;20045;-65
2023/03/26 03:32:03;;;;;;;3.53;1.00;;;6.00;99.90;;;;;;5040915;28;20052;-66
2023/03/26 03:34:28;;;;;;;7.15;1.52;;;5.90;99.90;;;;;;5052241;28;20412;-65
2023/03/26 03:36:54;;;;;;;4.45;1.33;;;5.90;99.90;;;;;;5048139;28;20046;-65
2023/03/26 03:39:19;;;;;;;9.85;1.27;;;5.80;99.90;;;;;;5044410;28;20037;-66
2023/03/26 03:41:45;;;;;;;9.07;1.65;;;5.80;99.90;;;;;;5033433;28;20050;-66
2023/03/26 03:44:11;;;;;;;6.85;1.50;;;5.60;99.90;;;;;;5043252;28;20036;-65
2023/03/26 03:46:36;;;;;;;6.10;1.50;;;5.50;99.90;;;;;;5038944;28;20064;-65
2023/03/26 03:49:02;;;;;;;7.10;1.25;;;5.50;99.90;;;;;;5037515;28;20822;-65
2023/03/26 03:51:28;;;;;;;3.03;1.20;;;5.40;99.90;;;;;;5033624;28;20469;-65
2023/03/26 03:53:54;;;;;;;4.60;1.02;;;5.40;99.90;;;;;;5045458;28;20442;-66
2023/03/26 03:56:22;;;;;;;2.65;1.20;;;5.30;99.90;;;;;;5028876;28;20249;-65
2023/03/26 03:58:49;;;;;;;4.40;1.33;;;5.20;99.90;;;;;;5041174;28;20049;-67
2023/03/26 04:01:16;;;;;;;3.75;1.90;;;5.20;99.90;;;;;;5039204;28;20054;-66
2023/03/26 04:03:44;;;;;;;3.83;1.20;;;5.20;99.90;;;;;;5034365;28;20049;-65
2023/03/26 04:06:11;;;;;;;5.07;1.10;;;5.20;99.90;;;;;;5036574;28;20036;-66
2023/03/26 04:08:37;;;;;;;5.15;1.20;;;5.20;99.90;;;;;;5046906;28;20043;-66
2023/03/26 04:11:02;;;;;;;6.28;1.42;;;5.30;99.90;;;;;;5043813;28;20033;-65
2023/03/26 04:13:28;;;;;;;3.60;0.98;;;5.20;99.90;;;;;;5032419;28;20056;-66
2023/03/26 04:15:54;;;;;;;4.50;1.30;;;5.20;99.90;;;;;;5032628;28;20047;-65
2023/03/26 04:18:21;;;;;;;1.55;1.10;;;5.20;99.90;;;;;;5040217;28;20041;-65
2023/03/26 04:20:48;;;;;;;5.70;1.13;;;5.20;99.90;;;;;;5045664;28;20095;-65
2023/03/26 04:23:16;;;;;;;3.90;1.08;;;5.10;99.90;;;;;;5032847;28;20436;-65
2023/03/26 04:25:52;;;;;;;6.05;1.45;;;5.00;99.90;;;;;;5038012;28;20046;-67
2023/03/26 04:28:27;;;;;;;3.50;0.93;;;4.90;99.90;;;;;;5039660;28;20041;-65
2023/03/26 04:30:55;;;;;;;3.25;1.08;;;4.90;99.90;;;;;;5043392;28;20388;-65
2023/03/26 04:33:23;;;;;;;2.60;0.90;;;4.80;99.90;;;;;;5046403;28;20124;-65
2023/03/26 04:35:50;;;;;;;3.63;1.00;;;4.80;99.90;;;;;;5043011;28;20049;-65
2023/03/26 04:38:17;;;;;;;5.25;0.90;;;4.70;99.90;;;;;;5023740;28;20041;-66
2023/03/26 04:40:46;;;;;;;4.40;1.20;;;4.60;99.90;;;;;;5050949;28;20045;-65
2023/03/26 04:43:13;;;;;;;2.97;0.98;;;4.60;99.90;;;;;;5032717;28;20047;-65
2023/03/26 04:45:38;;;;;;;4.57;1.88;;;4.60;99.90;;;;;;5038866;28;20465;-66
2023/03/26 04:48:06;;;;;;;10.93;4.90;;;4.60;99.90;;;;;;5037186;28;20052;-66
2023/03/26 04:50:32;;;;;;;27.95;16.42;;;4.70;99.90;;;;;;5035142;28;20069;-65
2023/03/26 04:52:57;;;;;;;10.50;6.60;;;4.70;99.90;;;;;;5031042;28;20064;-66
2023/03/26 04:55:28;;;;;;;10.57;5.78;;;4.70;99.90;;;;;;5051386;28;20111;-65
2023/03/26 04:57:58;;;;;;;4.40;2.38;;;4.80;99.90;;;;;;5047748;28;20047;-65
2023/03/26 05:00:25;;;;;;;5.68;2.10;;;4.80;99.90;;;;;;5046449;28;20423;-65
2023/03/26 05:02:52;;;;;;;6.38;1.38;;;4.80;99.90;;;;;;5049453;28;20383;-65
2023/03/26 05:05:17;;;;;;;4.88;1.83;;;4.90;99.90;;;;;;5035611;28;20039;-65
2023/03/26 05:07:43;;;;;;;7.53;1.05;;;4.80;99.90;;;;;;5056455;28;20029;-65
2023/03/26 05:10:12;;;;;;;7.88;1.33;;;4.90;99.90;;;;;;5046680;28;20514;-65
2023/03/26 05:12:38;;;;;;;6.72;2.08;;;4.90;99.90;;;;;;5044792;28;20079;-66
2023/03/26 05:15:04;;;;;;;3.95;1.40;;;4.90;99.90;;;;;;5024707;28;20501;-66
2023/03/26 05:17:30;;;;;;;10.30;1.52;;;4.90;99.90;;;;;;5040415;28;20052;-65
2023/03/26 05:19:56;;;;;;;6.10;1.15;;;4.90;99.90;;;;;;5051103;28;20045;-66
2023/03/26 05:22:22;;;;;;;4.45;1.63;;;5.00;99.90;;;;;;5053338;28;20562;-66
2023/03/26 05:24:47;;;;;;;4.35;1.20;;;5.00;99.90;;;;;;5035118;28;20073;-66
2023/03/26 05:27:18;;;;;;;8.95;1.40;;;5.00;99.90;;;;;;5035610;28;20045;-66
2023/03/26 05:29:45;;;;;;;5.72;1.20;;;5.10;99.90;;;;;;5047836;28;20068;-66
2023/03/26 05:32:11;;;;;;;3.63;1.60;;;5.10;99.90;;;;;;5051645;28;20468;-67
2023/03/26 05:34:40;;;;;;;9.98;1.83;;;5.20;99.90;;;;;;5051453;28;20080;-66
2023/03/26 05:37:07;;;;;;;8.55;3.45;;;5.30;99.90;;;;;;5048614;28;20132;-66
2023/03/26 05:39:34;;;;;;;10.52;3.45;;;5.30;99.90;;;;;;5035915;28;20041;-66
2023/03/26 05:42:00;;;;;;;10.43;4.28;;;5.30;99.90;;;;;;5034412;28;20041;-65
2023/03/26 05:44:25;;;;;;;7.82;2.70;;;5.20;99.90;;;;;;5031769;28;20533;-65
2023/03/26 05:46:51;;;;;;;3.13;1.58;;;5.20;99.90;;;;;;5021986;28;20064;-67
2023/03/26 05:49:16;;;;;;;4.95;1.95;;;5.20;99.90;;;;;;5041300;28;20052;-66
2023/03/26 05:51:42;;;;;;;5.13;1.30;;;5.20;99.90;;;;;;5033521;28;20038;-65
2023/03/26 05:54:08;;;;;;;3.30;1.20;;;5.30;99.90;;;;;;5035290;28;20483;-66
2023/03/26 05:56:33;;;;;;;4.50;1.10;;;5.40;99.90;;;;;;5032408;28;20453;-65
2023/03/26 05:58:59;;;;;;;3.75;1.48;;;5.40;99.90;;;;;;5039285;28;20071;-65
2023/03/26 06:01:24;;;;;;;5.85;1.27;;;5.50;99.90;;;;;;5035060;28;20065;-66
2023/03/26 06:03:51;;;;;;;3.47;1.25;;;5.60;99.90;;;;;;5039785;28;20042;-65
2023/03/26 06:06:19;;;;;;;4.18;1.73;;;5.60;99.90;;;;;;5037371;28;20044;-65
2023/03/26 06:08:50;;;;;;;3.72;1.80;;;5.60;99.90;;;;;;5035027;28;20059;-65
2023/03/26 06:11:17;;;;;;;9.13;1.65;;;5.70;99.90;;;;;;5032874;28;20147;-65
2023/03/26 06:13:42;;;;;;;3.30;1.15;;;5.70;99.90;;;;;;5032501;28;20040;-65
2023/03/26 06:16:09;;;;;;;2.47;1.60;;;5.70;99.90;;;;;;5036728;28;20067;-66
2023/03/26 06:18:36;;;;;;;9.45;1.92;;;5.80;99.90;;;;;;5043186;28;20477;-67
2023/03/26 06:21:02;;;;;;;4.03;1.73;;;5.80;99.90;;;;;;5038249;28;20040;-65
2023/03/26 06:23:28;;;;;;;7.40;1.85;;;5.80;99.90;;;;;;5032465;28;20080;-65
2023/03/26 06:25:53;;;;;;;7.32;1.42;;;5.90;99.90;;;;;;5028758;28;20049;-65
2023/03/26 06:28:19;;;;;;;8.35;1.48;;;5.90;99.90;;;;;;5045341;28;20075;-67
2023/03/26 06:30:45;;;;;;;6.38;1.58;;;6.00;99.90;;;;;;5044741;28;20127;-67
2023/03/26 06:33:10;;;;;;;5.03;1.60;;;6.00;99.90;;;;;;5010709;28;20049;-65
2023/03/26 06:35:36;;;;;;;5.90;1.40;;;6.10;99.90;;;;;;5030544;28;20044;-65
2023/03/26 06:38:02;;;;;;;6.28;1.40;;;6.20;99.90;;;;;;5033463;28;20042;-66
2023/03/26 06:40:27;;;;;;;4.43;1.52;;;6.20;99.90;;;;;;5047013;28;20048;-66
2023/03/26 06:42:54;;;;;;;7.35;1.10;;;6.40;99.90;;;;;;5035863;28;20125;-66
2023/03/26 06:45:20;;;;;;;11.98;2.00;;;6.50;99.90;;;;;;5028997;28;20122;-65
2023/03/26 06:47:46;;;;;;;4.85;1.35;;;6.60;99.90;;;;;;5034033;28;20424;-65
2023/03/26 06:50:12;;;;;;;6.65;2.03;;;6.60;99.90;;;;;;5035287;28;20044;-66
2023/03/26 06:52:37;;;;;;;10.68;1.40;;;6.70;99.90;;;;;;5032619;28;20060;-66
2023/03/26 06:55:05;;;;;;;6.75;1.50;;;6.70;99.90;;;;;;5031123;28;20045;-66
2023/03/26 06:57:31;;;;;;;4.30;1.38;;;6.70;99.90;;;;;;5060931;28;20105;-66
2023/03/26 06:59:56;;;;;;;6.85;1.70;;;6.80;99.90;;;;;;5042344;28;20052;-66
2023/03/26 07:02:22;;;;;;;12.00;2.17;;;6.80;99.90;;;;;;5033179;28;20053;-65
2023/03/26 07:04:48;;;;;;;9.43;1.63;;;6.90;99.90;;;;;;5046750;28;20467;-66
2023/03/26 07:07:13;;;;;;;4.93;1.50;;;6.90;99.90;;;;;;5039884;28;20040;-65
2023/03/26 07:09:39;;;;;;;7.72;1.50;;;6.90;99.90;;;;;;5042782;28;20144;-66
2023/03/26 07:12:05;;;;;;;6.25;1.52;;;6.90;99.90;;;;;;5044962;28;20049;-65
2023/03/26 07:14:31;;;;;;;6.82;1.17;;;7.00;99.90;;;;;;5048947;28;20049;-65
2023/03/26 07:16:59;;;;;;;13.00;1.67;;;7.00;99.90;;;;;;5051719;28;20041;-66
2023/03/26 07:19:25;;;;;;;6.68;1.85;;;7.10;99.90;;;;;;5029587;28;20504;-66
2023/03/26 07:21:52;;;;;;;6.57;1.23;;;7.10;99.90;;;;;;5031132;28;20045;-65
2023/03/26 07:24:17;;;;;;;6.28;1.35;;;7.20;99.90;;;;;;5042002;28;20361;-65
2023/03/26 07:27:06;;;;;;;4.90;1.00;;;7.20;99.90;;;;;;5051277;28;20044;-65
2023/03/26 07:29:53;;;;;;;4.10;1.15;;;7.20;99.90;;;;;;5038233;28;20687;-65
2023/03/26 07:32:53;;;;;;;7.78;1.23;;;7.20;99.90;;;;;;5037437;28;20079;-67
2023/03/26 07:35:41;;;;;;;8.50;1.15;;;7.30;99.90;;;;;;5031155;28;20053;-66
2023/03/26 07:38:31;;;;;;;13.07;1.60;;;7.30;99.90;;;;;;5031054;28;20376;-65
2023/03/26 07:41:14;;;;;;;10.63;1.20;;;7.40;99.90;;;;;;5041563;28;20033;-66
2023/03/26 07:44:03;;;;;;;4.82;1.10;;;7.50;99.90;;;;;;5027112;28;20136;-66
2023/03/26 07:46:31;;;;;;;7.40;1.10;;;7.70;99.90;;;;;;5023781;28;20042;-65
2023/03/26 07:48:59;;;;;;;8.10;1.90;;;7.90;99.90;;;;;;5045507;28;20069;-65
2023/03/26 07:51:25;;;;;;;7.90;1.13;;;8.00;99.90;;;;;;5038561;28;20075;-66
2023/03/26 07:53:51;;;;;;;13.95;1.60;;;8.10;99.90;;;;;;5043247;28;20496;-66
2023/03/26 07:56:27;;;;;;;4.18;0.88;;;8.10;99.90;;;;;;5048984;28;20067;-66
2023/03/26 07:59:04;;;;;;;4.95;1.52;;;8.10;99.90;;;;;;5042729;28;20096;-66
2023/03/26 08:01:55;;;;;;;9.77;1.40;;;8.10;99.90;;;;;;5031606;28;20140;-66
2023/03/26 08:04:24;;;;;;;11.10;1.20;;;8.20;99.90;;;;;;5046597;28;20447;-65
2023/03/26 08:07:12;;;;;;;10.43;1.70;;;8.40;99.90;;;;;;5034726;28;20460;-66
2023/03/26 08:09:53;;;;;;;6.75;1.33;;;8.40;99.90;;;;;;5039247;28;20041;-66
2023/03/26 08:12:24;;;;;;;6.55;1.20;;;8.50;99.90;;;;;;5030711;28;20523;-65
2023/03/26 08:15:07;;;;;;;3.70;0.70;;;8.60;99.90;;;;;;5041065;28;20424;-67
2023/03/26 08:17:58;;;;;;;8.35;1.23;;;8.70;99.90;;;;;;5042767;28;20037;-66
2023/03/26 08:20:36;;;;;;;6.82;1.00;;;8.70;99.90;;;;;;5034866;28;20041;-67
2023/03/26 08:23:24;;;;;;;4.30;0.90;;;8.90;99.90;;;;;;5037872;28;20421;-67
2023/03/26 08:26:11;;;;;;;7.70;1.40;;;8.90;99.90;;;;;;5044695;28;20136;-67
2023/03/26 08:28:43;;;;;;;8.98;1.17;;;9.10;99.90;;;;;;5046040;28;20032;-67
2023/03/26 08:31:12;;;;;;;8.63;1.20;;;9.10;99.90;;;;;;5039254;28;20037;-67
2023/03/26 08:33:39;;;;;;;3.20;0.73;;;9.10;99.90;;;;;;5044112;28;20040;-67
2023/03/26 08:36:06;;;;;;;6.22;1.00;;;9.20;99.90;;;;;;5043987;28;20048;-67
2023/03/26 08:38:31;;;;;;;6.18;1.08;;;9.10;99.90;;;;;;5040527;28;20430;-68
2023/03/26 08:41:15;;;;;;;3.67;1.25;;;9.20;99.90;;;;;;5049103;28;20049;-67
2023/03/26 08:44:03;;;;;;;7.68;1.10;;;9.20;99.90;;;;;;5045730;28;20067;-67
2023/03/26 08:46:37;;;;;;;6.63;1.02;;;9.20;99.90;;;;;;5048235;28;20041;-66
2023/03/26 08:49:40;;;;;;;7.05;1.15;;;9.20;99.90;;;;;;5037455;28;20038;-67
2023/03/26 08:52:36;;;;;;;5.03;0.93;;;9.20;99.90;;;;;;5040411;28;20048;-67
2023/03/26 08:55:14;;;;;;;3.53;0.82;;;9.10;99.90;;;;;;5038441;28;20128;-67
2023/03/26 08:57:58;;;;;;;2.65;1.05;;;9.10;99.90;;;;;;5034399;28;20481;-67
2023/03/26 09:01:01;;;;;;;6.30;0.98;;;9.20;99.90;;;;;;5045987;28;20111;-68
2023/03/26 09:03:55;;;;;;;7.75;1.40;;;9.20;99.90;;;;;;5033097;28;20059;-66
2023/03/26 09:06:35;;;;;;;8.70;1.20;;;9.30;99.90;;;;;;5034811;28;20041;-66
2023/03/26 09:09:14;;;;;;;;;;;9.60;99.90;;;;;;5039406;28;20106;-66
2023/03/26 09:11:55;;;;;;;10.27;1.40;;;9.50;99.90;;;;;;5037810;28;20292;-67
2023/03/26 09:15:04;;;;;;;7.22;1.17;;;9.60;99.90;;;;;;5031096;28;20519;-67
2023/03/26 09:17:45;;;;;;;4.97;1.05;;;9.60;99.90;;;;;;5034345;28;20662;-67
2023/03/26 09:20:25;;;;;;;11.38;1.00;;;9.70;99.90;;;;;;5053840;28;20040;-67
2023/03/26 09:23:00;;;;;;;2.60;1.05;;;9.80;99.90;;;;;;5034470;28;20053;-67
2023/03/26 09:25:41;;;;;;;5.10;1.75;;;9.90;99.90;;;;;;5047759;28;20083;-67
2023/03/26 09:28:39;;;;;;;6.90;1.50;;;9.80;99.90;;;;;;5049879;28;20064;-68
2023/03/26 09:31:33;;;;;;;4.40;1.13;;;9.90;99.90;;;;;;5037320;28;20029;-66
2023/03/26 09:34:29;;;;;;;8.07;1.17;;;9.90;99.90;;;;;;5020621;28;20049;-67
2023/03/26 09:37:06;;;;;;;6.53;0.95;;;10.00;99.90;;;;;;5037171;28;20488;-67
2023/03/26 09:39:49;;;;;;;8.65;1.50;;;10.10;99.90;;;;;;5050336;28;20118;-66
2023/03/26 09:42:24;;;;;;;5.18;1.60;;;10.20;99.90;;;;;;5041339;28;20053;-67
2023/03/26 09:45:14;;;;;;;3.63;1.48;;;10.20;99.90;;;;;;5031041;28;20091;-67
2023/03/26 09:47:51;;;;;;;5.78;0.90;;;10.20;99.90;;;;;;5048732;28;20039;-67
2023/03/26 09:50:43;;;;;;;10.75;1.85;;;10.20;99.90;;;;;;5049483;28;20037;-67
2023/03/26 09:53:17;;;;;;;7.38;1.25;;;10.10;99.90;;;;;;5045627;28;20463;-68
2023/03/26 09:56:07;;;;;;;5.30;1.42;;;10.10;99.90;;;;;;5049671;28;20063;-66
2023/03/26 09:59:04;;;;;;;6.03;1.35;;;10.10;99.90;;;;;;5039774;28;20358;-67
2023/03/26 10:02:04;;;;;;;13.82;1.65;;;10.10;99.90;;;;;;5033627;28;20103;-67
2023/03/26 10:04:34;;;;;;;6.38;1.55;;;10.20;99.90;;;;;;5039195;28;20396;-67
2023/03/26 10:07:07;;;;;;;;;;;10.30;99.90;;;;;;5048288;28;20041;-67
2023/03/26 10:10:03;;;;;;;4.43;1.17;;;10.40;99.90;;;;;;5035878;28;19923;-67
2023/03/26 10:12:44;;;;;;;3.38;0.93;;;10.50;99.90;;;;;;5028400;28;20060;-67
2023/03/26 10:15:18;;;;;;;3.35;1.40;;;10.40;99.90;;;;;;5053683;28;20426;-66
2023/03/26 10:18:23;;;;;;;6.43;1.02;;;10.40;99.90;;;;;;5051895;28;20475;-67
2023/03/26 10:21:04;;;;;;;5.60;1.42;;;10.30;99.90;;;;;;5034210;28;20086;-67
2023/03/26 10:23:39;;;;;;;4.40;1.10;;;10.50;99.90;;;;;;5038359;28;20086;-68
2023/03/26 10:26:30;;;;;;;5.28;1.02;;;10.40;99.90;;;;;;5065771;28;20100;-67
2023/03/26 10:29:40;;;;;;;8.98;1.10;;;10.40;99.90;;;;;;5034424;28;20384;-66
2023/03/26 10:32:24;;;;;;;5.15;1.20;;;10.30;99.90;;;;;;5035700;28;20129;-67
2023/03/26 10:35:11;;;;;;;2.97;1.10;;;10.10;99.90;;;;;;5047575;28;20049;-67
2023/03/26 10:37:39;;;;;;;13.18;1.40;;;10.10;99.90;;;;;;5050268;28;20530;-67
2023/03/26 10:40:15;;;;;;;6.50;1.50;;;10.00;99.90;;;;;;5049322;28;20040;-66
2023/03/26 10:42:59;;;;;;;3.17;1.02;;;9.90;99.90;;;;;;5044178;28;20040;-67
2023/03/26 10:45:44;;;;;;;8.18;1.27;;;9.90;99.90;;;;;;5040743;28;20040;-66
2023/03/26 10:48:21;;;;;;;6.13;1.20;;;10.00;99.90;;;;;;5045046;28;20042;-66
2023/03/26 10:51:11;;;;;;;10.38;1.90;;;10.00;99.90;;;;;;5036096;28;20368;-66
2023/03/26 10:54:25;;;;;;;7.40;1.40;;;9.90;99.90;;;;;;5049649;28;20098;-67
2023/03/26 10:56:51;;;;;;;6.20;1.17;;;10.00;99.90;;;;;;5046207;28;22027;-67
2023/03/26 10:59:17;;;;;;;5.88;0.90;;;10.00;99.90;;;;;;5051220;28;20404;-67
2023/03/26 11:02:16;;;;;;;7.80;1.52;;;10.00;99.90;;;;;;5052787;28;20408;-67
2023/03/26 11:05:18;;;;;;;6.40;1.23;;;9.90;99.90;;;;;;5050212;28;20048;-67
2023/03/26 11:08:00;;;;;;;7.57;1.10;;;9.90;99.90;;;;;;5041976;28;20393;-67
2023/03/26 11:10:49;;;;;;;4.07;1.10;;;9.90;99.90;;;;;;5031709;28;20048;-67
2023/03/26 11:13:42;;;;;;;8.20;1.08;;;10.00;99.90;;;;;;5045457;28;20052;-67
2023/03/26 11:16:34;;;;;;;5.65;1.00;;;10.00;99.90;;;;;;5032564;28;20049;-67
2023/03/26 11:19:42;;;;;;;4.78;0.88;;;10.00;99.90;;;;;;5039825;28;20049;-67
2023/03/26 11:22:35;;;;;;;5.90;0.88;;;10.10;99.90;;;;;;5024664;28;20071;-67
2023/03/26 11:25:00;;;;;;;10.65;1.45;;;10.20;99.90;;;;;;5049125;28;20685;-67
2023/03/26 11:27:52;;;;;;;4.22;1.33;;;10.30;99.90;;;;;;5033112;28;20049;-67
2023/03/26 11:30:44;;;;;;;7.75;1.33;;;10.30;99.90;;;;;;5021220;28;20038;-68
2023/03/26 11:33:18;;;;;;;6.20;1.20;;;10.40;99.90;;;;;;5043278;28;20045;-68
2023/03/26 11:35:48;;;;;;;3.63;1.10;;;10.50;99.90;;;;;;5030298;28;20075;-68
2023/03/26 11:38:26;;;;;;;5.10;0.90;;;10.60;99.90;;;;;;5028256;28;20117;-67
2023/03/26 11:40:54;;;;;;;3.72;0.70;;;10.60;99.90;;;;;;5021852;28;20103;-68
2023/03/26 11:43:25;;;;;;;6.15;1.70;;;10.80;99.90;;;;;;5022779;28;20132;-67
2023/03/26 11:45:52;;;;;;;9.05;1.25;;;10.80;99.90;;;;;;5042572;28;20049;-68
2023/03/26 11:48:30;;;;;;;7.35;1.10;;;10.80;99.90;;;;;;5055589;28;20476;-67
2023/03/26 11:51:11;;;;;;;5.30;1.45;;;10.80;99.90;;;;;;5031136;28;20049;-68
2023/03/26 11:53:38;;;;;;;3.40;1.10;;;10.80;99.90;;;;;;5033789;28;20039;-68
2023/03/26 11:56:32;;;;;;;4.97;1.15;;;10.90;99.90;;;;;;5035987;28;20049;-67
2023/03/26 11:59:13;;;;;;;5.50;1.13;;;10.80;99.90;;;;;;5028274;28;20091;-67
2023/03/26 12:01:56;;;;;;;5.30;1.00;;;10.80;99.90;;;;;;5042848;28;20055;-67
2023/03/26 12:04:42;;;;;;;10.30;1.20;;;10.80;99.90;;;;;;5038683;28;20041;-68
2023/03/26 12:07:33;;;;;;;2.13;0.68;;;10.90;99.90;;;;;;5047805;28;20515;-67
2023/03/26 12:10:03;;;;;;;5.82;1.23;;;10.90;99.90;;;;;;5038274;28;20127;-69
2023/03/26 12:12:40;;;;;;;6.75;1.23;;;11.00;99.90;;;;;;5038253;28;20432;-68
2023/03/26 12:15:15;;;;;;;4.05;1.10;;;11.00;99.90;;;;;;5038847;28;20042;-66
2023/03/26 12:17:41;;;;;;;6.43;1.15;;;10.90;99.90;;;;;;5042718;28;20419;-67
2023/03/26 12:20:25;;;;;;;7.80;1.00;;;10.80;99.90;;;;;;5049445;28;20512;-67
2023/03/26 12:22:58;;;;;;;5.38;1.25;;;10.70;99.90;;;;;;5047314;28;20376;-68
2023/03/26 12:25:29;;;;;;;9.95;1.40;;;10.70;99.90;;;;;;5045744;28;20488;-68
2023/03/26 12:28:03;;;;;;;5.82;1.00;;;10.70;99.90;;;;;;5054014;28;20037;-68
2023/03/26 12:30:34;;;;;;;7.18;1.25;;;10.60;99.90;;;;;;5043565;28;20484;-69
2023/03/26 12:33:03;;;;;;;4.63;1.13;;;10.60;99.90;;;;;;5033140;28;20038;-68
2023/03/26 12:35:33;;;;;;;5.33;1.23;;;10.60;99.90;;;;;;5033337;28;20041;-69
2023/03/26 12:38:32;;;;;;;4.88;0.95;;;10.50;99.90;;;;;;5062678;28;20495;-68
2023/03/26 12:41:16;;;;;;;4.57;1.05;;;10.50;99.90;;;;;;5043638;28;20055;-67
2023/03/26 12:43:44;;;;;;;5.32;0.90;;;10.50;98.80;;;;;;5042266;28;20045;-68
2023/03/26 12:46:22;;;;;;;4.45;1.10;;;10.50;99.90;;;;;;5034266;28;20045;-68
2023/03/26 12:48:50;;;;;;;5.82;0.82;;;10.60;98.20;;;;;;5033812;28;20056;-70
2023/03/26 12:51:42;;;;;;;6.18;1.30;;;10.60;99.90;;;;;;5050295;28;20127;-69
2023/03/26 12:54:16;;;;;;;3.00;0.60;;;10.70;99.90;;;;;;5037877;28;20034;-68
2023/03/26 12:56:48;;;;;;;7.68;1.10;;;10.70;99.90;;;;;;5048021;28;20044;-68
2023/03/26 12:59:29;;;;;;;3.55;0.93;;;10.80;99.90;;;;;;5032859;28;20053;-68
2023/03/26 13:02:24;;;;;;;4.60;0.82;;;11.20;99.90;;;;;;5010026;28;20038;-69
2023/03/26 13:05:05;;;;;;;5.05;0.93;;;11.20;99.90;;;;;;4997441;28;20402;-70
2023/03/26 13:08:05;;;;;;;6.15;1.17;;;11.20;99.90;;;;;;5004060;28;20555;-69
2023/03/26 13:10:37;;;;;;;6.85;1.00;;;11.10;95.90;;;;;;5002563;28;20125;-67
2023/03/26 13:13:14;;;;;;;3.38;0.82;;;11.00;99.90;;;;;;5009343;28;20510;-69
2023/03/26 13:15:45;;;;;;;12.45;1.25;;;11.00;99.90;;;;;;4999486;28;20113;-70
2023/03/26 13:18:14;;;;;;;5.78;1.33;;;11.00;99.80;;;;;;4992732;28;20497;-68
2023/03/26 13:20:59;;;;;;;5.50;1.00;;;11.00;99.90;;;;;;5022617;28;20045;-68
2023/03/26 13:23:55;;;;;;;5.60;0.80;;;10.90;94.40;;;;;;5006195;28;20053;-67
2023/03/26 13:26:59;;;;;;;5.82;0.77;;;11.00;93.20;;;;;;5016298;28;20466;-67
2023/03/26 13:29:55;;;;;;;1.67;0.82;;;11.00;93.60;;;;;;4999744;28;20117;-69